Biloxi, MS

4:03 PM CDT on September 24, 2016 (GMT -0500)
Keesler Air Force Base

Weather History for KBIX - January, 2012

Change the Weather History Date:

Sunday, January 22, 2012

  Actual Average Record
Temperature  
Mean Temperature 66 °F -  
Max Temperature 69 °F 60 °F 78 °F (1982)
Min Temperature 62 °F 45 °F 24 °F (1984)
Growing Degree Days 16 (Base 50)    
Moisture  
Dew Point 67 °F    
Average Humidity 100    
Maximum Humidity 100    
Minimum Humidity 94    
Precipitation  
Precipitation 0.00 in - - ()
Sea Level Pressure  
Sea Level Pressure 30.01 in    
Wind  
Wind Speed 6 mph (South)    
Max Wind Speed 14 mph    
Max Gust Speed 20 mph    
Visibility 2 miles    
Events Fog    
Averages and records for this station are not official NWS values.
T = Trace of Precipitation, MM = Missing Value Source: NWS Daily Summary

Daily Weather History Graph

Daily Weather History Graph

Search for Another Location

Airport or City:

Trip Planner

Search our weather history database for the weather conditions in past years. The results will help you decide how hot, cold, wet, or windy it might be!

Date:

Astronomy

Jan. 22, 2012 Rise Set
Actual Time 6:51 AM CST 5:23 PM CST
Civil Twilight 6:25 AM CST 5:48 PM CST
Nautical Twilight 5:56 AM CST 6:17 PM CST
Astronomical Twilight 5:27 AM CST 6:46 PM CST
Moon 6:08 AM CST (1/22) 5:03 PM CST (1/22)
Length of Visible Light 11h 22m
Length of Day
10h 31m
Waning Crescent, 0% of the Moon is Illuminated
Jan 22
Waning Crescent
Jan 23
New
Jan 30
First Quarter
Feb 7
Full
Feb 14
Last Quarter

Hourly Weather History & Observations

Time (CST) Temp. Dew Point Humidity Pressure Visibility Wind Dir Wind Speed Gust Speed Precip Events Conditions
12:02 AM 62.6 °F 62.6 °F 100% 30.00 in 0.2 mi SSW 3.5 mph - N/A Fog Fog
12:36 AM 64.4 °F 64.4 °F 100% 30.01 in 0.5 mi WSW 3.5 mph - N/A Fog Fog
12:55 AM 64.0 °F 64.0 °F 100% 30.01 in 0.5 mi Calm Calm - N/A Fog Fog
12:57 AM 64.4 °F 64.4 °F 100% 30.01 in 0.2 mi Calm Calm - N/A Fog Fog
1:55 AM 64.8 °F 64.8 °F 100% 30.01 in 0.2 mi Calm Calm - N/A Fog Fog
2:08 AM 64.4 °F 64.4 °F 100% 30.01 in 0.5 mi Calm Calm - N/A Fog Fog
2:21 AM 64.4 °F 64.4 °F 100% 30.00 in 0.8 mi Calm Calm - N/A   Mist
2:26 AM 64.4 °F 64.4 °F 100% 30.00 in 0.5 mi Calm Calm - N/A Fog Fog
2:55 AM 64.9 °F 64.8 °F 99% 30.00 in 0.5 mi Calm Calm - N/A Fog Fog
2:58 AM 64.4 °F 64.4 °F 100% 30.00 in 0.2 mi Calm Calm - N/A Fog Fog
3:55 AM 64.4 °F 64.4 °F 100% 29.99 in 0.2 mi East 3.5 mph - N/A Fog Fog
4:04 AM 64.4 °F 64.4 °F 100% 29.99 in 0.5 mi SE 3.5 mph - N/A Fog Fog
4:55 AM 64.9 °F 64.9 °F 100% 29.99 in 0.5 mi Calm Calm - N/A Fog Fog
5:39 AM 64.4 °F 64.4 °F 100% 30.00 in 0.8 mi Calm Calm - N/A   Mist
5:55 AM 64.9 °F 64.9 °F 100% 30.00 in 0.8 mi Calm Calm - N/A   Mist
6:08 AM 66.2 °F 66.2 °F 100% 30.00 in 0.5 mi Calm Calm - N/A Fog Fog
6:55 AM 65.8 °F 65.8 °F 100% 30.00 in 0.5 mi SSE 3.5 mph - N/A Fog Fog
6:56 AM 66.2 °F 66.2 °F 100% 30.00 in 0.2 mi SSE 3.5 mph - N/A Fog Fog
7:55 AM 66.0 °F 66.0 °F 100% 30.01 in 0.2 mi SSE 4.6 mph - N/A Fog Fog
8:53 AM 66.2 °F 66.2 °F 100% 30.03 in 0.2 mi South 6.9 mph - N/A Fog Fog
8:54 AM 66.2 °F 66.2 °F 100% 30.03 in 0.2 mi South 6.9 mph - N/A Fog Fog
8:55 AM 65.7 °F 65.7 °F 100% 30.03 in 0.2 mi South 8.1 mph - N/A Fog Fog
8:56 AM 66.2 °F 66.2 °F 100% 30.03 in 0.5 mi South 8.1 mph - N/A Fog Fog
9:03 AM 66.2 °F 66.2 °F 100% 30.03 in 0.2 mi South 6.9 mph - N/A Fog Fog
9:07 AM 66.2 °F 66.2 °F 100% 30.03 in 0.2 mi South 8.1 mph - N/A Fog Fog
9:08 AM 66.2 °F 66.2 °F 100% 30.03 in 0.2 mi South 6.9 mph - N/A Fog Fog
9:36 AM 66.2 °F 66.2 °F 100% 30.04 in 0.2 mi South 8.1 mph - N/A Fog Fog
9:42 AM 66.2 °F 66.2 °F 100% 30.04 in 0.5 mi South 8.1 mph - N/A Fog Fog
9:43 AM 66.2 °F 66.2 °F 100% 30.04 in 0.5 mi South 9.2 mph - N/A Fog Fog
9:55 AM 66.0 °F 66.0 °F 100% 30.04 in 0.5 mi South 8.1 mph - N/A Fog Fog
10:19 AM 66.2 °F 66.2 °F 100% 30.04 in 0.2 mi South 9.2 mph - N/A Fog Fog
10:22 AM 66.2 °F 66.2 °F 100% 30.04 in 0.2 mi South 9.2 mph - N/A Fog Fog
10:23 AM 66.2 °F 66.2 °F 100% 30.04 in 0.2 mi South 8.1 mph - N/A Fog Fog
10:24 AM 66.2 °F 66.2 °F 100% 30.04 in 0.2 mi South 9.2 mph - N/A Fog Fog
10:26 AM 66.2 °F 66.2 °F 100% 30.04 in 0.5 mi South 11.5 mph - N/A Fog Fog
10:30 AM 66.2 °F 66.2 °F 100% 30.04 in 0.5 mi South 9.2 mph - N/A Fog Fog
10:37 AM 66.2 °F 66.2 °F 100% 30.04 in 0.2 mi South 9.2 mph - N/A Fog Fog
10:40 AM 66.2 °F 66.2 °F 100% 30.04 in 0.2 mi South 10.4 mph - N/A Fog Fog
10:41 AM 66.2 °F 66.2 °F 100% 30.04 in 0.2 mi South 10.4 mph - N/A Fog Fog
10:42 AM 66.2 °F 66.2 °F 100% 30.04 in 0.2 mi South 9.2 mph - N/A Fog Fog
10:55 AM 66.6 °F 66.6 °F 100% 30.04 in 0.2 mi South 8.1 mph - N/A Fog Fog
11:17 AM 66.2 °F 66.2 °F 100% 30.03 in 0.2 mi South 8.1 mph - N/A Fog Fog
11:21 AM 66.2 °F 66.2 °F 100% 30.03 in 0.2 mi South 8.1 mph - N/A Fog Fog
11:22 AM 66.2 °F 66.2 °F 100% 30.03 in 0.5 mi South 8.1 mph - N/A Fog Fog
11:26 AM 66.2 °F 66.2 °F 100% 30.03 in 0.5 mi South 9.2 mph - N/A Fog Fog
11:30 AM 66.2 °F 66.2 °F 100% 30.02 in 0.8 mi South 9.2 mph - N/A   Mist
11:31 AM 66.2 °F 66.2 °F 100% 30.02 in 0.8 mi South 8.1 mph - N/A   Mist
11:34 AM 66.2 °F 66.2 °F 100% 30.02 in 0.8 mi South 8.1 mph - N/A   Mist
11:35 AM 66.2 °F 66.2 °F 100% 30.02 in 1.0 mi South 8.1 mph - N/A   Mist
11:38 AM 68.0 °F 68.0 °F 100% 30.02 in 1.2 mi South 9.2 mph - N/A   Overcast
11:40 AM 68.0 °F 68.0 °F 100% 30.02 in 1.5 mi South 8.1 mph - N/A   Overcast
11:42 AM 68.0 °F 68.0 °F 100% 30.02 in 1.8 mi SSW 9.2 mph - N/A   Overcast
11:43 AM 68.0 °F 68.0 °F 100% 30.02 in 2.0 mi South 10.4 mph - N/A   Overcast
11:48 AM 68.0 °F 68.0 °F 100% 30.02 in 2.5 mi South 9.2 mph - N/A   Overcast
11:50 AM 68.0 °F 68.0 °F 100% 30.02 in 2.0 mi South 9.2 mph - N/A   Overcast
11:53 AM 68.0 °F 68.0 °F 100% 30.02 in 1.8 mi South 11.5 mph - N/A   Overcast
11:55 AM 68.0 °F 68.0 °F 100% 30.02 in 1.5 mi South 10.4 mph - N/A   Overcast
11:56 AM 68.0 °F 68.0 °F 100% 30.02 in 1.2 mi South 10.4 mph - N/A   Overcast
11:58 AM 68.0 °F 68.0 °F 100% 30.02 in 1.0 mi South 10.4 mph - N/A   Mist
12:04 PM 68.0 °F 68.0 °F 100% 30.01 in 1.2 mi South 10.4 mph - N/A   Overcast
12:06 PM 68.0 °F 68.0 °F 100% 30.01 in 1.5 mi South 9.2 mph - N/A   Overcast
12:07 PM 68.0 °F 68.0 °F 100% 30.01 in 1.8 mi South 9.2 mph - N/A   Overcast
12:08 PM 68.0 °F 68.0 °F 100% 30.01 in 2.0 mi South 10.4 mph - N/A   Overcast
12:09 PM 68.0 °F 68.0 °F 100% 30.01 in 2.5 mi South 9.2 mph - N/A   Overcast
12:10 PM 68.0 °F 68.0 °F 100% 30.01 in 3.0 mi South 9.2 mph - N/A   Overcast
12:20 PM 68.0 °F 68.0 °F 100% 30.01 in 8.0 mi South 10.4 mph - N/A   Overcast
12:29 PM 68.0 °F 68.0 °F 100% 30.00 in 2.0 mi South 8.1 mph - N/A   Overcast
12:39 PM 68.0 °F 68.0 °F 100% 30.00 in 2.5 mi South 11.5 mph - N/A   Overcast
12:40 PM 68.0 °F 68.0 °F 100% 29.99 in 2.0 mi South 10.4 mph - N/A   Overcast
12:47 PM 68.0 °F 68.0 °F 100% 30.00 in 1.8 mi South 9.2 mph - N/A   Overcast
12:48 PM 68.0 °F 68.0 °F 100% 30.00 in 1.5 mi South 10.4 mph - N/A   Overcast
12:49 PM 68.0 °F 68.0 °F 100% 30.00 in 1.2 mi South 9.2 mph - N/A   Overcast
12:51 PM 68.0 °F 68.0 °F 100% 29.99 in 1.0 mi South 9.2 mph - N/A   Mist
12:53 PM 68.0 °F 68.0 °F 100% 29.99 in 0.8 mi South 9.2 mph - N/A   Mist
12:55 PM 67.6 °F 67.6 °F 100% 29.99 in 0.8 mi South 9.2 mph - N/A   Mist
12:56 PM 68.0 °F 68.0 °F 100% 29.99 in 0.8 mi South 9.2 mph - N/A   Mist
12:57 PM 68.0 °F 68.0 °F 100% 29.99 in 0.5 mi South 9.2 mph - N/A Fog Fog
1:03 PM 68.0 °F 68.0 °F 100% 29.99 in 0.5 mi South 9.2 mph - N/A Fog Fog
1:06 PM 68.0 °F 68.0 °F 100% 29.99 in 0.5 mi South 8.1 mph - N/A Fog Fog
1:07 PM 68.0 °F 68.0 °F 100% 29.99 in 0.5 mi South 8.1 mph - N/A Fog Fog
1:08 PM 68.0 °F 68.0 °F 100% 29.99 in 0.5 mi South 8.1 mph - N/A Fog Fog
1:09 PM 68.0 °F 68.0 °F 100% 29.99 in 0.5 mi South 8.1 mph - N/A Fog Fog
1:10 PM 68.0 °F 68.0 °F 100% 29.99 in 0.8 mi South 8.1 mph - N/A   Mist
1:12 PM 68.0 °F 68.0 °F 100% 29.99 in 1.0 mi South 8.1 mph - N/A   Mist
1:14 PM 68.0 °F 68.0 °F 100% 29.99 in 1.2 mi South 6.9 mph - N/A   Overcast
1:15 PM 68.0 °F 68.0 °F 100% 29.99 in 1.5 mi South 6.9 mph - N/A   Overcast
1:16 PM 68.0 °F 68.0 °F 100% 29.99 in 1.8 mi South 9.2 mph - N/A   Overcast
1:17 PM 68.0 °F 68.0 °F 100% 29.99 in 2.0 mi South 9.2 mph - N/A   Overcast
1:18 PM 68.0 °F 68.0 °F 100% 29.99 in 2.5 mi South 8.1 mph - N/A   Overcast
1:19 PM 68.0 °F 68.0 °F 100% 29.99 in 3.0 mi South 8.1 mph - N/A   Overcast
1:36 PM 68.0 °F 68.0 °F 100% 29.99 in 2.5 mi South 8.1 mph - N/A   Overcast
1:40 PM 68.0 °F 68.0 °F 100% 29.99 in 2.0 mi South 6.9 mph - N/A   Overcast
1:43 PM 68.0 °F 68.0 °F 100% 29.99 in 1.8 mi South 8.1 mph - N/A   Overcast
1:50 PM 68.0 °F 68.0 °F 100% 29.99 in 1.5 mi South 6.9 mph - N/A   Overcast
1:53 PM 68.0 °F 68.0 °F 100% 29.99 in 1.2 mi South 9.2 mph - N/A   Overcast
1:55 PM 68.7 °F 68.7 °F 100% 29.99 in 1.2 mi South 8.1 mph - N/A   Overcast
2:00 PM 68.0 °F 68.0 °F 100% 29.99 in 1.5 mi South 6.9 mph - N/A   Overcast
2:01 PM 68.0 °F 68.0 °F 100% 29.99 in 1.8 mi South 8.1 mph - N/A   Overcast
2:03 PM 68.0 °F 68.0 °F 100% 29.99 in 2.0 mi South 8.1 mph - N/A   Overcast
2:04 PM 68.0 °F 68.0 °F 100% 29.99 in 2.5 mi South 6.9 mph - N/A   Overcast
2:05 PM 68.0 °F 68.0 °F 100% 29.98 in 3.0 mi South 6.9 mph - N/A   Overcast
2:18 PM 69.8 °F 69.8 °F 100% 29.99 in 7.0 mi South 8.1 mph - N/A   Overcast
2:55 PM 69.3 °F 69.3 °F 100% 29.99 in 5.0 mi South 8.1 mph - N/A   Overcast
3:01 PM 69.8 °F 69.8 °F 100% 29.99 in 2.5 mi South 8.1 mph - N/A   Overcast
3:04 PM 69.8 °F 68.0 °F 94% 29.99 in 2.0 mi South 9.2 mph - N/A   Overcast
3:08 PM 68.0 °F 68.0 °F 100% 29.98 in 1.8 mi South 9.2 mph - N/A   Overcast
3:11 PM 68.0 °F 68.0 °F 100% 29.99 in 1.5 mi South 9.2 mph - N/A   Overcast
3:28 PM 68.0 °F 68.0 °F 100% 29.98 in 1.8 mi South 8.1 mph - N/A   Overcast
3:33 PM 68.0 °F 68.0 °F 100% 29.98 in 2.0 mi SSE 6.9 mph - N/A   Overcast
3:41 PM 68.0 °F 68.0 °F 100% 29.98 in 2.5 mi South 8.1 mph - N/A   Overcast
3:46 PM 68.0 °F 68.0 °F 100% 29.98 in 3.0 mi South 6.9 mph - N/A   Overcast
3:55 PM 67.5 °F 67.5 °F 100% 29.99 in 4.0 mi South 8.1 mph - N/A   Overcast
4:02 PM 68.0 °F 68.0 °F 100% 29.99 in 5.0 mi SSE 5.8 mph - N/A   Overcast
4:55 PM 67.1 °F 67.1 °F 100% 29.99 in 9.0 mi SSE 9.2 mph - N/A   Overcast
5:39 PM 68.0 °F 68.0 °F 100% 29.99 in 5.0 mi SSE 9.2 mph - N/A   Overcast
5:51 PM 66.2 °F 66.2 °F 100% 29.99 in 6.0 mi SSE 8.1 mph - N/A   Overcast
5:55 PM 67.1 °F 67.1 °F 100% 29.99 in 7.0 mi SSE 8.1 mph - N/A   Overcast
6:00 PM 68.0 °F 68.0 °F 100% 29.99 in 8.0 mi SSE 8.1 mph - N/A   Overcast
6:55 PM 66.7 °F 66.7 °F 100% 30.00 in 10.0 mi SSE 6.9 mph - N/A   Overcast
7:52 PM 68.0 °F 68.0 °F 100% 29.99 in 10.0 mi SSE 10.4 mph - N/A   Mostly Cloudy
7:55 PM 67.5 °F 67.5 °F 100% 29.99 in 10.0 mi SSE 10.4 mph - N/A   Mostly Cloudy
8:55 PM 67.1 °F 67.1 °F 100% 30.01 in 10.0 mi SSE 10.4 mph - N/A   Overcast
9:23 PM 66.2 °F 66.2 °F 100% 30.01 in 9.0 mi SSE 11.5 mph - N/A   Overcast
9:26 PM 66.2 °F 66.2 °F 100% 30.00 in 9.0 mi SSE 11.5 mph - N/A   Overcast
9:42 PM 66.2 °F 66.2 °F 100% 29.99 in 10.0 mi SSE 11.5 mph 18.4 mph N/A   Overcast
9:52 PM 66.2 °F 66.2 °F 100% 29.99 in 10.0 mi South 10.4 mph - N/A   Overcast
9:55 PM 66.7 °F 66.7 °F 100% 29.99 in 10.0 mi South 12.7 mph - N/A   Overcast
10:55 PM 67.3 °F 67.3 °F 100% 29.98 in 10.0 mi South 13.8 mph 19.6 mph N/A   Overcast
11:41 PM 68.0 °F 68.0 °F 100% 29.99 in 10.0 mi South 11.5 mph - N/A   Overcast
11:49 PM 68.0 °F 68.0 °F 100% 29.98 in 10.0 mi South 13.8 mph - N/A   Overcast
11:55 PM 67.1 °F 67.1 °F 100% 29.98 in 10.0 mi South 12.7 mph - N/A   Overcast